Flight Track Log - Related Links

Times and Time Zones

All times are in EST time to prevent confusion due to time zone crossing. See the N498QS flight status page for this flight to view local times or setup timezone preferences in your user account.

Time Position Orientation Groundspeed Altitude Reporting Facility
EST Latitude Longitude Course Direction KTS MPH feet Rate Location/Type
Wed 10:50:15 AM 40.8833 -74.0500 323° Northwest 185 213 1,900  Level New York TRACON
Wed 10:51:15 AM 40.9167 -74.0833 323° Northwest 213 245 2,600 1,800 Climbing New York TRACON
Wed 10:52:15 AM 40.9500 -74.1667 298° West 261 300 5,500 1,789 Climbing New York TRACON
Wed 10:53:09 AM 41.0000 -74.1833 346° North 275 316 6,000 316 Climbing New York TRACON
Wed 10:54:09 AM 41.0667 -74.1500 21° North 268 308 6,100 50 Climbing New York TRACON
Wed 10:55:09 AM 41.1333 -74.1167 21° North 266 306 6,100 700 Level New York TRACON
Wed 10:56:09 AM 41.1833 -74.0333 51° Northeast 264 304 7,500 1,700 Climbing New York TRACON
Wed 10:57:09 AM 41.2000 -73.9333 77° East 273 314 9,500 1,800 Climbing New York TRACON
Wed 10:58:09 AM 41.2167 -73.8500 75° East 279 321 11,100 1,000 Climbing New York TRACON
Wed 10:59:09 AM 41.2333 -73.7333 79° East 329 379 11,500 1,043 Climbing New York TRACON
Wed 11:01:36 AM 41.2519 -73.4367 85° East 346 398 14,700 1,565 Climbing Boston Center
Wed 11:02:36 AM 41.2633 -73.3044 83° East 355 409 16,900 1,200 Climbing Boston Center
Wed 11:03:36 AM 41.2769 -73.1472 83° East 388 447 17,100 100 Climbing Boston Center
Wed 11:04:36 AM 41.2839 -73.0036 86° East 388 447 17,100  Level Boston Center
Wed 11:05:36 AM 41.2908 -72.8628 86° East 383 441 17,100  Level Boston Center
Wed 11:06:36 AM 41.2975 -72.7247 86° East 383 441 17,100  Level Boston Center
Wed 11:07:36 AM 41.3061 -72.5839 85° East 383 441 17,100  Level Boston Center
Wed 11:08:05 AM 41.3103 -72.5119 86° East 388 447 17,100  Level Boston Center
Wed 11:08:23 AM 41.3106 -72.4706 89° East 390 449 17,100 -456 Level Boston Center
Wed 11:09:24 AM 41.3186 -72.3239 86° East 392 451 16,500 -787 Descending Boston Center
Wed 11:10:25 AM 41.3247 -72.1914 86° East 367 422 15,500 -992 Descending Boston Center
Wed 11:11:25 AM 41.3347 -72.0558 84° East 365 420 14,500 -1,041 Descending Boston Center
Wed 11:12:26 AM 41.3383 -71.9147 88° East 359 413 13,400 -1,033 Descending Boston Center
Wed 11:13:27 AM 41.3461 -71.7819 85° East 357 411 12,400 -969 Descending Boston Center
Wed 11:14:36 AM 41.3536 -71.6436 86° East 338 389 11,300 -1,140 Descending Boston Center
Wed 11:15:28 AM 41.3569 -71.5522 87° East 297 342 10,100 -1,487 Descending Boston Center
Wed 11:16:29 AM 41.3603 -71.4472 88° East 286 329 8,500 -1,488 Descending Boston Center
Wed 11:17:29 AM 41.3633 -71.3394 88° East 274 315 7,100 -661 Descending Boston Center
Wed 11:18:36 AM 41.3708 -71.2369 84° East 267 307 7,100  Level Boston Center
Wed 11:19:36 AM 41.3739 -71.1456 87° East 267 307 7,100 -900 Level Boston Center
Wed 11:20:36 AM 41.3622 -71.0433 99° East 267 307 5,300 -1,000 Descending Boston Center
Wed 11:21:36 AM 41.3486 -70.9636 103° East 257 296 5,100 -700 Descending Boston Center
Wed 11:22:36 AM 41.3350 -70.8753 102° East 231 266 3,900 -1,400 Descending Boston Center
Wed 11:23:36 AM 41.3236 -70.8067 102° East 214 246 2,300 -950 Descending Boston Center
Wed 11:24:36 AM 41.3267 -70.7317 87° East 192 221 2,000 -550 Descending Boston Center
Wed 11:25:36 AM 41.3444 -70.6733 68° East 186 214 1,200 -700 Descending Boston Center
Wed 11:26:36 AM 41.3708 -70.6228 55° Northeast 164 189 600 -600 Descending Boston Center
Wed 11:30:00 AM 41.3934 -70.6139 242° Southwest  Level Estimated
Wed 11:37:00 AM 41.3934 -70.6139 North  Level Estimated
Wed 11:38:00 AM 41.3934 -70.6139 North  Level Estimated
Wed 11:39:00 AM 41.3934 -70.6139 North  Level Estimated
Wed 11:40:00 AM 41.3934 -70.6139 North  Level Estimated
Wed 11:41:00 AM 41.3934 -70.6139 North  Level Estimated
Wed 11:42:00 AM 41.3934 -70.6139 North  Level Estimated
Wed 11:43:00 AM 41.3934 -70.6139 North  Level Estimated
Wed 11:44:00 AM 41.3934 -70.6139 North  Level Estimated

Login

Don't have an account? Register now (free) for customized features, flight alerts, and more!